sensor_id;sensor_type;location;lat;lon;timestamp;pressure;altitude;pressure_sealevel;temperature;humidity
20622;BME280;10470;42.670;23.354;2023-02-28T00:00:08;95174.28;;;7.47;100.00
20622;BME280;10470;42.670;23.354;2023-02-28T00:02:36;95184.16;;;7.77;100.00
20622;BME280;10470;42.670;23.354;2023-02-28T00:05:02;95200.38;;;7.60;100.00
20622;BME280;10470;42.670;23.354;2023-02-28T00:07:29;95193.41;;;7.39;100.00
20622;BME280;10470;42.670;23.354;2023-02-28T00:09:55;95187.22;;;7.59;100.00
20622;BME280;10470;42.670;23.354;2023-02-28T00:12:21;95187.50;;;7.44;100.00
20622;BME280;10470;42.670;23.354;2023-02-28T00:14:47;95187.06;;;7.46;100.00
20622;BME280;10470;42.670;23.354;2023-02-28T00:17:12;95202.56;;;7.46;100.00
20622;BME280;10470;42.670;23.354;2023-02-28T00:19:38;95201.38;;;7.47;100.00
20622;BME280;10470;42.670;23.354;2023-02-28T00:22:03;95191.44;;;7.60;100.00
20622;BME280;10470;42.670;23.354;2023-02-28T00:24:29;95205.13;;;7.73;100.00
20622;BME280;10470;42.670;23.354;2023-02-28T00:26:54;95213.06;;;7.43;100.00
20622;BME280;10470;42.670;23.354;2023-02-28T00:29:19;95199.16;;;7.61;100.00
20622;BME280;10470;42.670;23.354;2023-02-28T00:31:45;95211.28;;;7.77;100.00
20622;BME280;10470;42.670;23.354;2023-02-28T00:34:10;95208.34;;;7.68;100.00
20622;BME280;10470;42.670;23.354;2023-02-28T00:36:36;95195.47;;;7.72;100.00
20622;BME280;10470;42.670;23.354;2023-02-28T00:39:01;95215.34;;;7.65;100.00
20622;BME280;10470;42.670;23.354;2023-02-28T00:41:27;95211.97;;;7.61;100.00
20622;BME280;10470;42.670;23.354;2023-02-28T00:43:52;95210.78;;;7.62;100.00
20622;BME280;10470;42.670;23.354;2023-02-28T00:46:18;95199.66;;;7.56;100.00
20622;BME280;10470;42.670;23.354;2023-02-28T00:48:43;95190.94;;;7.65;100.00
20622;BME280;10470;42.670;23.354;2023-02-28T00:51:09;95189.56;;;7.57;100.00
20622;BME280;10470;42.670;23.354;2023-02-28T00:53:34;95190.69;;;7.59;100.00
20622;BME280;10470;42.670;23.354;2023-02-28T00:56:00;95205.16;;;7.53;100.00
20622;BME280;10470;42.670;23.354;2023-02-28T00:58:26;95184.72;;;7.48;100.00
20622;BME280;10470;42.670;23.354;2023-02-28T01:00:52;95198.78;;;7.19;100.00
20622;BME280;10470;42.670;23.354;2023-02-28T01:03:19;95199.34;;;7.11;100.00
20622;BME280;10470;42.670;23.354;2023-02-28T01:05:45;95193.19;;;7.30;100.00
20622;BME280;10470;42.670;23.354;2023-02-28T01:08:11;95203.78;;;7.44;100.00
20622;BME280;10470;42.670;23.354;2023-02-28T01:10:37;95205.38;;;7.42;100.00
20622;BME280;10470;42.670;23.354;2023-02-28T01:13:04;95195.53;;;7.28;100.00
20622;BME280;10470;42.670;23.354;2023-02-28T01:15:29;95190.53;;;7.27;100.00
20622;BME280;10470;42.670;23.354;2023-02-28T01:17:57;95178.63;;;7.20;100.00
20622;BME280;10470;42.670;23.354;2023-02-28T01:20:22;95195.28;;;7.42;100.00
20622;BME280;10470;42.670;23.354;2023-02-28T01:22:48;95195.91;;;7.50;100.00
20622;BME280;10470;42.670;23.354;2023-02-28T01:25:13;95194.81;;;7.48;100.00
20622;BME280;10470;42.670;23.354;2023-02-28T01:27:39;95194.84;;;7.44;100.00
20622;BME280;10470;42.670;23.354;2023-02-28T01:30:06;95186.59;;;7.51;100.00
20622;BME280;10470;42.670;23.354;2023-02-28T01:32:32;95193.97;;;7.51;100.00
20622;BME280;10470;42.670;23.354;2023-02-28T01:34:57;95187.41;;;7.48;100.00
20622;BME280;10470;42.670;23.354;2023-02-28T01:37:23;95191.16;;;7.54;100.00
20622;BME280;10470;42.670;23.354;2023-02-28T01:39:48;95198.72;;;7.23;100.00
20622;BME280;10470;42.670;23.354;2023-02-28T01:42:14;95193.78;;;7.18;100.00
20622;BME280;10470;42.670;23.354;2023-02-28T01:47:38;95198.19;;;7.32;100.00
20622;BME280;10470;42.670;23.354;2023-02-28T01:50:10;95194.69;;;7.31;100.00
20622;BME280;10470;42.670;23.354;2023-02-28T01:52:37;95210.16;;;7.34;100.00
20622;BME280;10470;42.670;23.354;2023-02-28T01:55:05;95209.78;;;7.32;100.00
20622;BME280;10470;42.670;23.354;2023-02-28T01:57:35;95211.41;;;7.30;100.00
20622;BME280;10470;42.670;23.354;2023-02-28T02:00:14;95210.31;;;6.80;100.00
20622;BME280;10470;42.670;23.354;2023-02-28T02:02:43;95198.88;;;6.92;100.00
20622;BME280;10470;42.670;23.354;2023-02-28T02:05:12;95204.78;;;7.11;100.00
20622;BME280;10470;42.670;23.354;2023-02-28T02:07:41;95196.06;;;6.76;100.00
20622;BME280;10470;42.670;23.354;2023-02-28T02:10:11;95199.47;;;6.80;100.00
20622;BME280;10470;42.670;23.354;2023-02-28T02:15:38;95199.34;;;7.11;100.00
20622;BME280;10470;42.670;23.354;2023-02-28T02:27:17;95183.91;;;6.84;100.00
20622;BME280;10470;42.670;23.354;2023-02-28T02:40:16;95195.69;;;6.97;100.00
20622;BME280;10470;42.670;23.354;2023-02-28T02:42:52;95199.75;;;7.09;100.00
20622;BME280;10470;42.670;23.354;2023-02-28T02:48:02;95204.44;;;7.05;100.00
20622;BME280;10470;42.670;23.354;2023-02-28T02:50:36;95201.06;;;7.01;100.00
20622;BME280;10470;42.670;23.354;2023-02-28T02:53:04;95206.19;;;6.95;100.00
20622;BME280;10470;42.670;23.354;2023-02-28T02:55:34;95200.78;;;6.95;100.00
20622;BME280;10470;42.670;23.354;2023-02-28T02:58:05;95202.53;;;7.06;100.00
20622;BME280;10470;42.670;23.354;2023-02-28T03:00:40;95205.41;;;6.95;100.00
20622;BME280;10470;42.670;23.354;2023-02-28T03:03:09;95216.66;;;6.93;100.00
20622;BME280;10470;42.670;23.354;2023-02-28T03:05:42;95220.44;;;6.99;100.00
20622;BME280;10470;42.670;23.354;2023-02-28T03:08:10;95224.03;;;7.16;100.00
20622;BME280;10470;42.670;23.354;2023-02-28T03:10:38;95231.03;;;7.14;100.00
20622;BME280;10470;42.670;23.354;2023-02-28T03:27:03;95244.44;;;7.21;100.00
20622;BME280;10470;42.670;23.354;2023-02-28T03:29:45;95251.44;;;7.18;100.00
20622;BME280;10470;42.670;23.354;2023-02-28T03:32:31;95250.50;;;7.29;100.00
20622;BME280;10470;42.670;23.354;2023-02-28T03:37:39;95250.69;;;7.18;100.00
20622;BME280;10470;42.670;23.354;2023-02-28T03:40:15;95251.69;;;7.28;100.00
20622;BME280;10470;42.670;23.354;2023-02-28T03:42:45;95254.41;;;7.28;100.00
20622;BME280;10470;42.670;23.354;2023-02-28T03:45:34;95258.34;;;7.23;100.00
20622;BME280;10470;42.670;23.354;2023-02-28T03:48:26;95261.59;;;6.91;100.00
20622;BME280;10470;42.670;23.354;2023-02-28T03:50:58;95254.78;;;7.06;100.00
20622;BME280;10470;42.670;23.354;2023-02-28T03:53:32;95262.34;;;7.15;100.00
20622;BME280;10470;42.670;23.354;2023-02-28T03:56:05;95224.63;;;6.81;100.00
20622;BME280;10470;42.670;23.354;2023-02-28T03:58:39;95263.19;;;7.12;100.00
20622;BME280;10470;42.670;23.354;2023-02-28T04:01:07;95256.66;;;7.09;100.00
20622;BME280;10470;42.670;23.354;2023-02-28T04:03:36;95272.56;;;7.07;100.00
20622;BME280;10470;42.670;23.354;2023-02-28T04:06:02;95276.66;;;7.15;100.00
20622;BME280;10470;42.670;23.354;2023-02-28T04:08:28;95267.13;;;7.07;100.00
20622;BME280;10470;42.670;23.354;2023-02-28T04:13:49;95256.19;;;7.14;100.00
20622;BME280;10470;42.670;23.354;2023-02-28T04:16:15;95255.34;;;7.17;100.00
20622;BME280;10470;42.670;23.354;2023-02-28T04:18:41;95264.72;;;7.13;100.00
20622;BME280;10470;42.670;23.354;2023-02-28T04:21:10;95254.31;;;7.11;100.00
20622;BME280;10470;42.670;23.354;2023-02-28T04:23:36;95253.59;;;7.07;100.00
20622;BME280;10470;42.670;23.354;2023-02-28T04:26:02;95260.22;;;7.03;100.00
20622;BME280;10470;42.670;23.354;2023-02-28T04:28:27;95266.25;;;6.90;100.00
20622;BME280;10470;42.670;23.354;2023-02-28T04:30:57;95262.06;;;6.86;100.00
20622;BME280;10470;42.670;23.354;2023-02-28T04:33:23;95261.50;;;6.98;100.00
20622;BME280;10470;42.670;23.354;2023-02-28T04:36:00;95256.13;;;6.94;100.00
20622;BME280;10470;42.670;23.354;2023-02-28T04:38:28;95264.41;;;6.84;100.00
20622;BME280;10470;42.670;23.354;2023-02-28T04:40:57;95265.34;;;6.97;100.00
20622;BME280;10470;42.670;23.354;2023-02-28T04:43:22;95275.06;;;6.94;100.00
20622;BME280;10470;42.670;23.354;2023-02-28T04:45:48;95266.13;;;6.97;100.00
20622;BME280;10470;42.670;23.354;2023-02-28T04:48:13;95282.34;;;7.01;100.00
20622;BME280;10470;42.670;23.354;2023-02-28T04:50:39;95280.59;;;6.87;100.00
20622;BME280;10470;42.670;23.354;2023-02-28T04:53:04;95283.06;;;6.78;100.00
20622;BME280;10470;42.670;23.354;2023-02-28T04:55:30;95276.22;;;6.70;100.00
20622;BME280;10470;42.670;23.354;2023-02-28T04:57:55;95282.03;;;6.68;100.00
20622;BME280;10470;42.670;23.354;2023-02-28T05:00:21;95288.06;;;6.52;100.00
20622;BME280;10470;42.670;23.354;2023-02-28T05:02:46;95277.78;;;6.44;100.00
20622;BME280;10470;42.670;23.354;2023-02-28T05:05:12;95282.72;;;6.49;100.00
20622;BME280;10470;42.670;23.354;2023-02-28T05:07:43;95287.16;;;6.63;100.00
20622;BME280;10470;42.670;23.354;2023-02-28T05:10:10;95282.81;;;6.69;100.00
20622;BME280;10470;42.670;23.354;2023-02-28T05:12:35;95288.22;;;6.42;100.00
20622;BME280;10470;42.670;23.354;2023-02-28T05:15:01;95277.47;;;6.65;100.00
20622;BME280;10470;42.670;23.354;2023-02-28T05:17:28;95283.69;;;6.62;100.00
20622;BME280;10470;42.670;23.354;2023-02-28T05:19:53;95290.13;;;6.72;100.00
20622;BME280;10470;42.670;23.354;2023-02-28T05:22:19;95293.00;;;6.85;100.00
20622;BME280;10470;42.670;23.354;2023-02-28T05:24:44;95298.03;;;6.86;100.00
20622;BME280;10470;42.670;23.354;2023-02-28T05:27:09;95300.63;;;6.66;100.00
20622;BME280;10470;42.670;23.354;2023-02-28T05:29:35;95307.22;;;6.92;100.00
20622;BME280;10470;42.670;23.354;2023-02-28T05:32:11;95305.63;;;6.95;100.00
20622;BME280;10470;42.670;23.354;2023-02-28T05:34:41;95306.53;;;6.88;100.00
20622;BME280;10470;42.670;23.354;2023-02-28T05:37:12;95310.75;;;6.89;100.00
20622;BME280;10470;42.670;23.354;2023-02-28T05:39:38;95315.56;;;6.78;100.00
20622;BME280;10470;42.670;23.354;2023-02-28T05:42:04;95312.91;;;6.74;100.00
20622;BME280;10470;42.670;23.354;2023-02-28T05:44:30;95319.09;;;6.75;100.00
20622;BME280;10470;42.670;23.354;2023-02-28T05:46:55;95323.47;;;6.92;100.00
20622;BME280;10470;42.670;23.354;2023-02-28T05:49:21;95320.72;;;6.96;100.00
20622;BME280;10470;42.670;23.354;2023-02-28T05:51:47;95327.38;;;6.91;100.00
20622;BME280;10470;42.670;23.354;2023-02-28T05:54:13;95325.41;;;6.92;100.00
20622;BME280;10470;42.670;23.354;2023-02-28T05:56:38;95327.69;;;6.70;100.00
20622;BME280;10470;42.670;23.354;2023-02-28T05:59:10;95333.34;;;7.06;100.00
20622;BME280;10470;42.670;23.354;2023-02-28T06:01:38;95341.19;;;7.00;100.00
20622;BME280;10470;42.670;23.354;2023-02-28T06:04:07;95330.81;;;7.19;100.00
20622;BME280;10470;42.670;23.354;2023-02-28T06:06:33;95338.31;;;7.11;100.00
20622;BME280;10470;42.670;23.354;2023-02-28T06:09:03;95330.03;;;7.18;100.00
20622;BME280;10470;42.670;23.354;2023-02-28T06:11:30;95334.09;;;7.07;100.00
20622;BME280;10470;42.670;23.354;2023-02-28T06:13:59;95329.72;;;7.16;100.00
20622;BME280;10470;42.670;23.354;2023-02-28T06:16:27;95329.09;;;7.29;100.00
20622;BME280;10470;42.670;23.354;2023-02-28T06:18:52;95325.50;;;7.12;100.00
20622;BME280;10470;42.670;23.354;2023-02-28T06:21:21;95322.81;;;7.35;100.00
20622;BME280;10470;42.670;23.354;2023-02-28T06:23:46;95334.75;;;7.14;100.00
20622;BME280;10470;42.670;23.354;2023-02-28T06:26:12;95342.53;;;7.36;100.00
20622;BME280;10470;42.670;23.354;2023-02-28T06:28:37;95334.88;;;7.31;100.00
20622;BME280;10470;42.670;23.354;2023-02-28T06:31:11;95328.53;;;7.41;100.00
20622;BME280;10470;42.670;23.354;2023-02-28T06:33:38;95337.38;;;7.45;100.00
20622;BME280;10470;42.670;23.354;2023-02-28T06:36:04;95349.03;;;7.42;100.00
20622;BME280;10470;42.670;23.354;2023-02-28T06:38:31;95348.50;;;7.27;100.00
20622;BME280;10470;42.670;23.354;2023-02-28T06:40:58;95354.69;;;7.28;100.00
20622;BME280;10470;42.670;23.354;2023-02-28T06:43:24;95355.50;;;7.25;100.00
20622;BME280;10470;42.670;23.354;2023-02-28T06:45:50;95361.94;;;7.34;100.00
20622;BME280;10470;42.670;23.354;2023-02-28T06:48:16;95359.38;;;7.23;100.00
20622;BME280;10470;42.670;23.354;2023-02-28T06:50:41;95360.63;;;7.19;100.00
20622;BME280;10470;42.670;23.354;2023-02-28T06:53:06;95362.28;;;7.36;100.00
20622;BME280;10470;42.670;23.354;2023-02-28T06:55:32;95368.16;;;7.31;100.00
20622;BME280;10470;42.670;23.354;2023-02-28T06:57:58;95362.72;;;7.35;100.00
20622;BME280;10470;42.670;23.354;2023-02-28T07:00:25;95373.25;;;7.29;100.00
20622;BME280;10470;42.670;23.354;2023-02-28T07:02:50;95371.19;;;7.37;100.00
20622;BME280;10470;42.670;23.354;2023-02-28T07:05:16;95373.19;;;7.33;100.00
20622;BME280;10470;42.670;23.354;2023-02-28T07:07:42;95368.50;;;7.37;100.00
20622;BME280;10470;42.670;23.354;2023-02-28T07:10:11;95365.81;;;7.33;100.00
20622;BME280;10470;42.670;23.354;2023-02-28T07:12:36;95364.53;;;7.41;100.00
20622;BME280;10470;42.670;23.354;2023-02-28T07:15:04;95365.16;;;7.26;100.00
20622;BME280;10470;42.670;23.354;2023-02-28T07:17:29;95359.63;;;7.33;100.00
20622;BME280;10470;42.670;23.354;2023-02-28T07:19:55;95364.53;;;7.41;100.00
20622;BME280;10470;42.670;23.354;2023-02-28T07:22:20;95368.31;;;7.48;100.00
20622;BME280;10470;42.670;23.354;2023-02-28T07:24:46;95376.03;;;7.49;100.00
20622;BME280;10470;42.670;23.354;2023-02-28T07:27:11;95372.00;;;7.57;100.00
20622;BME280;10470;42.670;23.354;2023-02-28T07:29:37;95379.38;;;7.57;100.00
20622;BME280;10470;42.670;23.354;2023-02-28T07:32:03;95370.56;;;7.53;100.00
20622;BME280;10470;42.670;23.354;2023-02-28T07:34:29;95372.31;;;7.63;100.00
20622;BME280;10470;42.670;23.354;2023-02-28T07:36:54;95370.28;;;7.91;100.00
20622;BME280;10470;42.670;23.354;2023-02-28T07:39:21;95375.81;;;8.07;100.00
20622;BME280;10470;42.670;23.354;2023-02-28T07:41:47;95373.09;;;8.07;100.00
20622;BME280;10470;42.670;23.354;2023-02-28T07:44:13;95381.56;;;8.09;100.00
20622;BME280;10470;42.670;23.354;2023-02-28T07:46:38;95378.69;;;8.20;100.00
20622;BME280;10470;42.670;23.354;2023-02-28T07:49:04;95383.00;;;8.17;100.00
20622;BME280;10470;42.670;23.354;2023-02-28T07:51:31;95380.47;;;8.26;100.00
20622;BME280;10470;42.670;23.354;2023-02-28T07:53:57;95379.56;;;8.13;100.00
20622;BME280;10470;42.670;23.354;2023-02-28T07:56:23;95374.41;;;8.19;100.00
20622;BME280;10470;42.670;23.354;2023-02-28T07:58:48;95373.94;;;8.24;100.00
20622;BME280;10470;42.670;23.354;2023-02-28T08:01:14;95374.41;;;8.19;100.00
20622;BME280;10470;42.670;23.354;2023-02-28T08:03:40;95371.34;;;8.37;100.00
20622;BME280;10470;42.670;23.354;2023-02-28T08:06:07;95366.66;;;8.41;100.00
20622;BME280;10470;42.670;23.354;2023-02-28T08:08:33;95366.81;;;8.53;100.00
20622;BME280;10470;42.670;23.354;2023-02-28T08:11:00;95369.44;;;8.57;100.00
20622;BME280;10470;42.670;23.354;2023-02-28T08:13:28;95370.78;;;8.85;100.00
20622;BME280;10470;42.670;23.354;2023-02-28T08:15:55;95374.38;;;8.99;100.00
20622;BME280;10470;42.670;23.354;2023-02-28T08:18:21;95357.84;;;9.42;100.00
20622;BME280;10470;42.670;23.354;2023-02-28T08:20:48;95372.53;;;9.28;100.00
20622;BME280;10470;42.670;23.354;2023-02-28T08:23:13;95367.34;;;9.50;100.00
20622;BME280;10470;42.670;23.354;2023-02-28T08:25:39;95379.69;;;9.55;100.00
20622;BME280;10470;42.670;23.354;2023-02-28T08:28:04;95379.06;;;9.31;100.00
20622;BME280;10470;42.670;23.354;2023-02-28T08:30:30;95377.28;;;9.57;100.00
20622;BME280;10470;42.670;23.354;2023-02-28T08:32:55;95380.09;;;9.70;100.00
20622;BME280;10470;42.670;23.354;2023-02-28T08:35:21;95378.81;;;9.74;100.00
20622;BME280;10470;42.670;23.354;2023-02-28T08:37:48;95386.94;;;9.91;100.00
20622;BME280;10470;42.670;23.354;2023-02-28T08:40:14;95386.06;;;10.10;100.00
20622;BME280;10470;42.670;23.354;2023-02-28T08:42:44;95382.31;;;10.20;100.00
20622;BME280;10470;42.670;23.354;2023-02-28T08:45:11;95383.94;;;10.18;100.00
20622;BME280;10470;42.670;23.354;2023-02-28T08:47:36;95380.84;;;10.32;100.00
20622;BME280;10470;42.670;23.354;2023-02-28T08:50:02;95378.13;;;10.16;100.00
20622;BME280;10470;42.670;23.354;2023-02-28T08:52:28;95377.06;;;10.42;100.00
20622;BME280;10470;42.670;23.354;2023-02-28T08:54:53;95372.66;;;10.32;100.00
20622;BME280;10470;42.670;23.354;2023-02-28T08:57:18;95386.78;;;10.43;100.00
20622;BME280;10470;42.670;23.354;2023-02-28T08:59:44;95395.38;;;10.42;100.00
20622;BME280;10470;42.670;23.354;2023-02-28T09:02:13;95384.16;;;10.53;100.00
20622;BME280;10470;42.670;23.354;2023-02-28T09:04:38;95392.59;;;10.71;100.00
20622;BME280;10470;42.670;23.354;2023-02-28T09:07:04;95390.97;;;10.74;100.00
20622;BME280;10470;42.670;23.354;2023-02-28T09:09:29;95387.91;;;10.59;100.00
20622;BME280;10470;42.670;23.354;2023-02-28T09:11:58;95389.84;;;10.45;100.00
20622;BME280;10470;42.670;23.354;2023-02-28T09:14:24;95390.31;;;10.69;100.00
20622;BME280;10470;42.670;23.354;2023-02-28T09:16:49;95392.38;;;10.65;100.00
20622;BME280;10470;42.670;23.354;2023-02-28T09:19:15;95394.03;;;10.76;100.00
20622;BME280;10470;42.670;23.354;2023-02-28T09:21:40;95389.69;;;10.78;100.00
20622;BME280;10470;42.670;23.354;2023-02-28T09:24:06;95387.94;;;10.71;100.00
20622;BME280;10470;42.670;23.354;2023-02-28T09:26:32;95395.28;;;10.87;100.00
20622;BME280;10470;42.670;23.354;2023-02-28T09:28:59;95393.41;;;10.97;100.00
20622;BME280;10470;42.670;23.354;2023-02-28T09:31:27;95389.50;;;11.11;100.00
20622;BME280;10470;42.670;23.354;2023-02-28T09:33:55;95402.81;;;11.34;100.00
20622;BME280;10470;42.670;23.354;2023-02-28T09:36:23;95392.34;;;11.20;100.00
20622;BME280;10470;42.670;23.354;2023-02-28T09:38:49;95404.13;;;11.30;100.00
20622;BME280;10470;42.670;23.354;2023-02-28T09:41:27;95404.78;;;11.47;100.00
20622;BME280;10470;42.670;23.354;2023-02-28T09:44:02;95403.38;;;11.42;100.00
20622;BME280;10470;42.670;23.354;2023-02-28T09:46:44;95397.25;;;11.12;100.00
20622;BME280;10470;42.670;23.354;2023-02-28T09:49:18;95403.91;;;11.11;100.00
20622;BME280;10470;42.670;23.354;2023-02-28T09:52:03;95391.69;;;11.42;100.00
20622;BME280;10470;42.670;23.354;2023-02-28T09:54:31;95391.97;;;11.69;100.00
20622;BME280;10470;42.670;23.354;2023-02-28T09:57:18;95396.91;;;11.62;100.00
20622;BME280;10470;42.670;23.354;2023-02-28T10:00:02;95397.22;;;11.76;100.00
20622;BME280;10470;42.670;23.354;2023-02-28T10:02:53;95397.00;;;11.71;100.00
20622;BME280;10470;42.670;23.354;2023-02-28T10:05:29;95397.22;;;11.64;100.00
20622;BME280;10470;42.670;23.354;2023-02-28T10:10:44;95391.34;;;12.13;100.00
20622;BME280;10470;42.670;23.354;2023-02-28T10:22:14;95388.44;;;12.29;100.00
20622;BME280;10470;42.670;23.354;2023-02-28T10:24:47;95391.63;;;12.28;100.00
20622;BME280;10470;42.670;23.354;2023-02-28T10:27:24;95389.78;;;12.24;100.00
20622;BME280;10470;42.670;23.354;2023-02-28T10:30:02;95381.47;;;12.72;100.00
20622;BME280;10470;42.670;23.354;2023-02-28T10:32:34;95387.38;;;12.71;100.00
20622;BME280;10470;42.670;23.354;2023-02-28T10:35:16;95384.84;;;13.07;100.00
20622;BME280;10470;42.670;23.354;2023-02-28T10:37:45;95376.59;;;13.29;100.00
20622;BME280;10470;42.670;23.354;2023-02-28T10:40:35;95380.53;;;13.69;100.00
20622;BME280;10470;42.670;23.354;2023-02-28T10:43:03;95378.59;;;13.38;100.00
20622;BME280;10470;42.670;23.354;2023-02-28T10:45:34;95377.47;;;13.67;100.00
20622;BME280;10470;42.670;23.354;2023-02-28T10:48:29;95377.97;;;13.93;100.00
20622;BME280;10470;42.670;23.354;2023-02-28T10:50:56;95377.50;;;13.85;100.00
20622;BME280;10470;42.670;23.354;2023-02-28T10:53:27;95362.22;;;13.57;100.00
20622;BME280;10470;42.670;23.354;2023-02-28T10:55:57;95370.22;;;13.91;100.00
20622;BME280;10470;42.670;23.354;2023-02-28T10:58:26;95368.38;;;13.79;100.00
20622;BME280;10470;42.670;23.354;2023-02-28T11:00:52;95359.56;;;13.75;100.00
20622;BME280;10470;42.670;23.354;2023-02-28T11:03:30;95365.84;;;14.40;100.00
20622;BME280;10470;42.670;23.354;2023-02-28T11:05:56;95357.16;;;14.14;100.00
20622;BME280;10470;42.670;23.354;2023-02-28T11:08:22;95344.50;;;13.98;100.00
20622;BME280;10470;42.670;23.354;2023-02-28T11:11:03;95352.44;;;13.96;100.00
20622;BME280;10470;42.670;23.354;2023-02-28T11:13:34;95355.91;;;14.70;100.00
20622;BME280;10470;42.670;23.354;2023-02-28T11:16:04;95355.19;;;14.14;100.00
20622;BME280;10470;42.670;23.354;2023-02-28T11:18:50;95345.13;;;14.30;100.00
20622;BME280;10470;42.670;23.354;2023-02-28T11:21:26;95341.91;;;13.94;100.00
20622;BME280;10470;42.670;23.354;2023-02-28T11:26:39;95351.34;;;13.75;100.00
20622;BME280;10470;42.670;23.354;2023-02-28T11:29:12;95339.13;;;13.67;100.00
20622;BME280;10470;42.670;23.354;2023-02-28T11:31:41;95336.34;;;13.48;100.00
20622;BME280;10470;42.670;23.354;2023-02-28T11:34:28;95349.97;;;13.70;100.00
20622;BME280;10470;42.670;23.354;2023-02-28T11:36:55;95341.16;;;13.75;100.00
20622;BME280;10470;42.670;23.354;2023-02-28T11:39:22;95329.44;;;14.12;100.00
20622;BME280;10470;42.670;23.354;2023-02-28T11:56:05;95322.28;;;14.33;100.00
20622;BME280;10470;42.670;23.354;2023-02-28T12:01:25;95329.19;;;14.89;100.00
20622;BME280;10470;42.670;23.354;2023-02-28T12:04:25;95332.63;;;14.19;100.00
20622;BME280;10470;42.670;23.354;2023-02-28T12:07:16;95329.53;;;14.73;100.00
20622;BME280;10470;42.670;23.354;2023-02-28T12:10:21;95340.38;;;14.21;100.00
20622;BME280;10470;42.670;23.354;2023-02-28T12:23:48;95326.41;;;14.10;100.00
20622;BME280;10470;42.670;23.354;2023-02-28T12:26:38;95331.09;;;14.28;100.00
20622;BME280;10470;42.670;23.354;2023-02-28T12:29:10;95329.56;;;14.63;100.00
20622;BME280;10470;42.670;23.354;2023-02-28T12:32:16;95331.34;;;14.85;100.00
20622;BME280;10470;42.670;23.354;2023-02-28T12:34:55;95329.13;;;14.56;100.00
20622;BME280;10470;42.670;23.354;2023-02-28T12:38:12;95337.03;;;14.26;100.00
20622;BME280;10470;42.670;23.354;2023-02-28T12:40:25;95326.09;;;14.17;100.00
20622;BME280;10470;42.670;23.354;2023-02-28T12:42:56;95326.38;;;13.91;100.00
20622;BME280;10470;42.670;23.354;2023-02-28T12:45:40;95320.13;;;13.63;100.00
20622;BME280;10470;42.670;23.354;2023-02-28T12:48:11;95317.09;;;13.70;100.00
20622;BME280;10470;42.670;23.354;2023-02-28T12:50:40;95311.75;;;13.67;100.00
20622;BME280;10470;42.670;23.354;2023-02-28T12:53:21;95313.88;;;13.63;100.00
20622;BME280;10470;42.670;23.354;2023-02-28T12:56:03;95311.31;;;13.87;100.00
20622;BME280;10470;42.670;23.354;2023-02-28T12:58:43;95314.22;;;14.02;100.00
20622;BME280;10470;42.670;23.354;2023-02-28T13:07:08;95322.25;;;14.60;100.00
20622;BME280;10470;42.670;23.354;2023-02-28T13:09:38;95317.22;;;15.11;100.00
20622;BME280;10470;42.670;23.354;2023-02-28T13:12:15;95327.59;;;14.18;100.00
20622;BME280;10470;42.670;23.354;2023-02-28T13:14:42;95320.00;;;14.13;100.00
20622;BME280;10470;42.670;23.354;2023-02-28T13:19:44;95310.53;;;14.23;100.00
20622;BME280;10470;42.670;23.354;2023-02-28T13:22:20;95315.13;;;14.17;100.00
20622;BME280;10470;42.670;23.354;2023-02-28T13:25:01;95305.16;;;14.66;100.00
20622;BME280;10470;42.670;23.354;2023-02-28T13:27:38;95299.31;;;14.12;100.00
20622;BME280;10470;42.670;23.354;2023-02-28T13:33:34;95304.78;;;13.93;100.00
20622;BME280;10470;42.670;23.354;2023-02-28T13:36:07;95298.22;;;14.28;100.00
20622;BME280;10470;42.670;23.354;2023-02-28T13:38:36;95296.22;;;14.37;100.00
20622;BME280;10470;42.670;23.354;2023-02-28T13:44:17;95303.50;;;13.48;100.00
20622;BME280;10470;42.670;23.354;2023-02-28T13:49:31;95293.75;;;13.29;100.00
20622;BME280;10470;42.670;23.354;2023-02-28T14:00:23;95285.25;;;12.96;100.00
20622;BME280;10470;42.670;23.354;2023-02-28T14:05:34;95285.94;;;12.78;100.00
20622;BME280;10470;42.670;23.354;2023-02-28T14:08:18;95289.00;;;12.27;100.00
20622;BME280;10470;42.670;23.354;2023-02-28T14:10:51;95289.72;;;12.18;100.00
20622;BME280;10470;42.670;23.354;2023-02-28T14:13:44;95287.78;;;12.06;100.00
20622;BME280;10470;42.670;23.354;2023-02-28T14:16:15;95294.84;;;12.38;100.00
20622;BME280;10470;42.670;23.354;2023-02-28T14:18:50;95286.59;;;12.07;100.00
20622;BME280;10470;42.670;23.354;2023-02-28T14:21:23;95284.16;;;12.09;100.00
20622;BME280;10470;42.670;23.354;2023-02-28T14:32:54;95290.00;;;11.98;100.00
20622;BME280;10470;42.670;23.354;2023-02-28T14:37:42;95296.56;;;12.22;100.00
20622;BME280;10470;42.670;23.354;2023-02-28T14:40:22;95292.88;;;11.94;100.00
20622;BME280;10470;42.670;23.354;2023-02-28T14:42:58;95282.22;;;12.09;100.00
20622;BME280;10470;42.670;23.354;2023-02-28T14:45:30;95283.75;;;11.88;100.00
20622;BME280;10470;42.670;23.354;2023-02-28T14:47:56;95284.31;;;11.70;100.00
20622;BME280;10470;42.670;23.354;2023-02-28T14:50:27;95288.94;;;11.61;100.00
20622;BME280;10470;42.670;23.354;2023-02-28T14:52:55;95282.88;;;11.31;100.00
20622;BME280;10470;42.670;23.354;2023-02-28T14:55:45;95287.13;;;11.45;100.00
20622;BME280;10470;42.670;23.354;2023-02-28T14:58:22;95277.22;;;11.25;100.00
20622;BME280;10470;42.670;23.354;2023-02-28T15:00:50;95286.13;;;11.51;100.00
20622;BME280;10470;42.670;23.354;2023-02-28T15:06:00;95285.91;;;11.46;100.00
20622;BME280;10470;42.670;23.354;2023-02-28T15:08:26;95283.63;;;11.44;100.00
20622;BME280;10470;42.670;23.354;2023-02-28T15:11:08;95280.38;;;11.36;100.00